createdAt,value
2019-01-30T00:02:15.857Z,69.24
2019-01-30T00:04:44.461Z,69.45
2019-01-30T00:07:13.103Z,69.47
2019-01-30T00:09:41.737Z,69.44
2019-01-30T00:12:10.347Z,69.44
2019-01-30T00:14:38.946Z,69.44
2019-01-30T00:17:07.572Z,69.29
2019-01-30T00:19:36.165Z,69.46
2019-01-30T00:22:05.135Z,69.52
2019-01-30T00:24:33.713Z,69.50
2019-01-30T00:27:02.348Z,69.40
2019-01-30T00:29:31.293Z,69.28
2019-01-30T00:31:59.833Z,68.82
2019-01-30T00:34:28.529Z,68.91
2019-01-30T00:36:57.261Z,68.56
2019-01-30T00:39:25.961Z,68.99
2019-01-30T00:41:54.531Z,68.92
2019-01-30T00:44:23.155Z,68.68
2019-01-30T00:46:51.832Z,68.68
2019-01-30T00:49:20.465Z,68.35
2019-01-30T00:51:49.074Z,68.67
2019-01-30T00:54:17.692Z,68.50
2019-01-30T00:56:46.357Z,68.34
2019-01-30T00:59:14.941Z,68.36
2019-01-30T01:01:43.562Z,67.76
2019-01-30T01:04:12.271Z,67.82
2019-01-30T01:06:40.920Z,67.51
2019-01-30T01:09:10.460Z,68.04
2019-01-30T01:11:39.087Z,68.04
2019-01-30T01:14:07.782Z,67.70
2019-01-30T01:16:36.357Z,68.02
2019-01-30T01:19:04.982Z,68.13
2019-01-30T01:21:33.653Z,67.74
2019-01-30T01:24:02.348Z,68.01
2019-01-30T01:26:30.931Z,68.34
2019-01-30T01:28:59.590Z,67.93
2019-01-30T01:31:28.137Z,67.99
2019-01-30T01:33:56.793Z,67.43
2019-01-30T01:36:25.384Z,67.39
2019-01-30T01:38:53.993Z,67.61
2019-01-30T01:41:22.621Z,67.11
2019-01-30T01:43:51.266Z,67.12
2019-01-30T01:46:19.859Z,67.23
2019-01-30T01:48:48.499Z,67.18
2019-01-30T01:51:17.121Z,66.89
2019-01-30T01:53:45.713Z,66.55
2019-01-30T01:56:14.286Z,66.45
2019-01-30T01:58:42.952Z,66.49
2019-01-30T02:01:11.538Z,66.89
2019-01-30T02:03:40.547Z,66.88
2019-01-30T02:06:15.158Z,66.96
2019-01-30T02:08:43.937Z,67.17
2019-01-30T02:11:13.099Z,67.35
2019-01-30T02:13:41.742Z,67.48
2019-01-30T02:16:10.358Z,67.51
2019-01-30T02:18:38.960Z,67.61
2019-01-30T02:21:07.544Z,67.88
2019-01-30T02:23:36.182Z,67.59
2019-01-30T02:26:04.762Z,67.20
2019-01-30T02:28:33.379Z,67.21
2019-01-30T02:31:02.007Z,67.23
2019-01-30T02:33:30.723Z,66.87
2019-01-30T02:35:59.318Z,67.36
2019-01-30T02:38:27.905Z,66.86
2019-01-30T02:40:56.553Z,66.57
2019-01-30T02:43:25.177Z,66.80
2019-01-30T02:45:53.826Z,66.79
2019-01-30T02:48:22.513Z,66.66
2019-01-30T02:50:51.483Z,66.63
2019-01-30T02:53:20.091Z,66.45
2019-01-30T02:55:48.750Z,66.66
2019-01-30T02:58:17.395Z,66.71
2019-01-30T03:00:46.035Z,66.54
2019-01-30T03:03:14.648Z,66.55
2019-01-30T03:05:43.223Z,66.50
2019-01-30T03:08:11.880Z,66.46
2019-01-30T03:10:40.541Z,66.44
2019-01-30T03:13:09.172Z,66.15
2019-01-30T03:15:57.096Z,66.24
2019-01-30T03:18:25.686Z,66.04
2019-01-30T03:20:54.287Z,65.88
2019-01-30T03:23:22.964Z,65.80
2019-01-30T03:25:51.620Z,65.69
2019-01-30T03:28:20.242Z,65.83
2019-01-30T03:30:48.846Z,65.74
2019-01-30T03:33:17.505Z,65.79
2019-01-30T03:35:46.056Z,65.47
2019-01-30T03:38:14.694Z,65.27
2019-01-30T03:40:43.306Z,65.41
2019-01-30T03:43:11.901Z,65.50
2019-01-30T03:45:40.513Z,65.35
2019-01-30T03:48:09.093Z,65.68
2019-01-30T03:50:37.698Z,65.15
2019-01-30T03:53:06.313Z,65.06
2019-01-30T03:55:34.913Z,65.13
2019-01-30T03:58:03.572Z,65.12
2019-01-30T04:00:32.181Z,65.09
2019-01-30T04:03:00.801Z,64.83
2019-01-30T04:05:29.452Z,64.89
2019-01-30T04:07:58.093Z,64.64
2019-01-30T04:10:26.678Z,64.40
2019-01-30T04:12:55.364Z,64.19
2019-01-30T04:15:24.014Z,64.69
2019-01-30T04:17:52.615Z,64.40
2019-01-30T04:20:21.270Z,64.27
2019-01-30T04:22:49.810Z,64.00
2019-01-30T04:25:18.406Z,63.98
2019-01-30T04:27:47.025Z,64.17
2019-01-30T04:30:20.961Z,64.03
2019-01-30T04:32:49.597Z,63.85
2019-01-30T04:35:18.169Z,63.64
2019-01-30T04:37:46.761Z,63.78
2019-01-30T04:40:17.146Z,63.71
2019-01-30T04:42:45.733Z,63.63
2019-01-30T04:45:17.255Z,63.32
2019-01-30T04:47:45.894Z,63.57
2019-01-30T04:50:14.571Z,63.76
2019-01-30T04:52:43.194Z,63.09
2019-01-30T04:55:11.800Z,62.56
2019-01-30T04:57:40.395Z,62.54
2019-01-30T05:00:10.946Z,62.39
2019-01-30T05:02:39.608Z,62.32
2019-01-30T05:05:09.321Z,62.39
2019-01-30T05:07:37.963Z,62.13
2019-01-30T05:10:07.559Z,62.29
2019-01-30T05:12:36.142Z,62.29
2019-01-30T05:15:06.338Z,61.97
2019-01-30T05:17:34.924Z,62.30
2019-01-30T05:20:03.728Z,62.38
2019-01-30T05:22:33.282Z,62.60
2019-01-30T05:25:01.931Z,62.42
2019-01-30T05:27:30.611Z,62.22
2019-01-30T05:29:59.232Z,62.68
2019-01-30T05:32:27.792Z,62.83
2019-01-30T05:34:56.374Z,62.93
2019-01-30T05:37:24.975Z,63.12
2019-01-30T05:39:53.574Z,63.09
2019-01-30T05:42:22.169Z,62.97
2019-01-30T05:44:50.838Z,63.09
2019-01-30T05:47:19.418Z,62.82
2019-01-30T05:49:48.395Z,62.69
2019-01-30T05:52:16.985Z,62.60
2019-01-30T05:54:45.646Z,62.55
2019-01-30T05:57:14.282Z,62.89
2019-01-30T05:59:42.871Z,62.54
2019-01-30T06:02:12.530Z,62.64
2019-01-30T06:04:41.393Z,62.94
2019-01-30T06:07:09.967Z,62.57
2019-01-30T06:09:38.603Z,62.59
2019-01-30T06:12:07.233Z,62.59
2019-01-30T06:14:35.844Z,62.77
2019-01-30T06:17:05.014Z,62.27
2019-01-30T06:19:33.690Z,63.25
2019-01-30T06:22:02.302Z,64.04
2019-01-30T06:24:32.765Z,64.47
2019-01-30T06:27:01.433Z,64.80
2019-01-30T06:29:30.024Z,65.58
2019-01-30T06:31:58.781Z,65.69
2019-01-30T06:34:27.354Z,66.74
2019-01-30T06:36:55.966Z,67.45
2019-01-30T06:39:24.594Z,69.15
2019-01-30T06:41:53.282Z,69.79
2019-01-30T06:44:21.890Z,71.39
2019-01-30T06:46:50.541Z,72.52
2019-01-30T06:49:19.159Z,73.69
2019-01-30T06:51:47.789Z,74.35
2019-01-30T06:54:16.459Z,75.40
2019-01-30T06:56:45.083Z,75.86
2019-01-30T06:59:13.709Z,76.21
2019-01-30T07:01:42.378Z,76.69
2019-01-30T07:04:10.987Z,77.09
2019-01-30T07:06:39.581Z,77.62
2019-01-30T07:09:10.598Z,77.76
2019-01-30T07:11:39.195Z,77.84
2019-01-30T07:14:07.861Z,77.64
2019-01-30T07:16:36.443Z,77.84
2019-01-30T07:19:05.093Z,77.54
2019-01-30T07:21:33.766Z,77.92
2019-01-30T07:24:02.408Z,77.88
2019-01-30T07:26:31.017Z,77.93
2019-01-30T07:28:59.599Z,78.08
2019-01-30T07:31:28.187Z,78.07
2019-01-30T07:33:56.861Z,77.89
2019-01-30T07:36:25.472Z,77.99
2019-01-30T07:38:54.044Z,77.93
2019-01-30T07:41:22.670Z,77.53
2019-01-30T07:43:51.271Z,76.49
2019-01-30T07:46:19.967Z,77.17
2019-01-30T07:48:48.627Z,77.81
2019-01-30T07:51:17.269Z,78.02
2019-01-30T07:53:46.019Z,77.73
2019-01-30T07:56:14.773Z,77.68
2019-01-30T07:58:43.453Z,77.98
2019-01-30T08:01:12.959Z,77.94
2019-01-30T08:03:41.591Z,77.96
2019-01-30T08:06:12.827Z,78.82
2019-01-30T08:08:42.754Z,78.46
2019-01-30T08:11:11.425Z,78.11
2019-01-30T08:13:40.013Z,78.20
2019-01-30T08:16:10.072Z,78.55
2019-01-30T08:18:42.280Z,78.38
2019-01-30T08:21:13.703Z,77.90
2019-01-30T08:23:45.341Z,77.37
2019-01-30T08:26:14.152Z,77.45
2019-01-30T08:28:42.845Z,77.50
2019-01-30T08:31:13.580Z,77.42
2019-01-30T08:33:42.221Z,76.54
2019-01-30T08:36:10.830Z,76.33
2019-01-30T08:38:39.471Z,76.10
2019-01-30T08:41:08.062Z,76.47
2019-01-30T08:43:36.700Z,76.62
2019-01-30T08:46:05.342Z,76.01
2019-01-30T08:48:33.961Z,76.11
2019-01-30T08:51:02.639Z,76.07
2019-01-30T08:53:31.277Z,76.33
2019-01-30T08:55:59.903Z,76.00
2019-01-30T08:58:28.556Z,75.73
2019-01-30T09:00:57.163Z,75.58
2019-01-30T09:03:25.798Z,75.85
2019-01-30T09:05:54.372Z,75.33
2019-01-30T09:08:22.972Z,74.99
2019-01-30T09:10:51.584Z,75.23
2019-01-30T09:13:20.192Z,75.25
2019-01-30T09:15:48.801Z,75.11
2019-01-30T09:18:17.419Z,75.29
2019-01-30T09:20:46.009Z,75.29
2019-01-30T09:23:14.624Z,75.48
2019-01-30T09:25:43.285Z,74.91
2019-01-30T09:28:12.986Z,73.95
2019-01-30T09:30:41.635Z,72.73
2019-01-30T09:33:11.296Z,73.47
2019-01-30T09:35:39.980Z,73.17
2019-01-30T09:38:08.576Z,72.80
2019-01-30T09:40:37.253Z,72.76
2019-01-30T09:43:06.054Z,72.98
2019-01-30T09:45:34.720Z,72.88
2019-01-30T09:48:03.405Z,73.00
2019-01-30T09:50:34.198Z,73.08
2019-01-30T09:53:02.751Z,73.47
2019-01-30T09:55:31.330Z,73.47
2019-01-30T09:57:59.911Z,73.20
2019-01-30T10:00:33.131Z,73.18
2019-01-30T10:03:01.955Z,73.19
2019-01-30T10:05:30.521Z,72.20
2019-01-30T10:07:59.166Z,72.60
2019-01-30T10:10:32.378Z,72.34
2019-01-30T10:13:00.969Z,72.08
2019-01-30T10:15:32.458Z,72.27
2019-01-30T10:18:01.244Z,71.96
2019-01-30T10:20:30.082Z,71.68
2019-01-30T10:22:58.697Z,71.10
2019-01-30T10:25:27.263Z,71.03
2019-01-30T10:27:55.850Z,71.33
2019-01-30T10:30:26.899Z,71.02
2019-01-30T10:32:55.513Z,71.66
2019-01-30T10:35:24.164Z,71.46
2019-01-30T10:37:52.741Z,71.46
2019-01-30T10:40:21.385Z,70.32
2019-01-30T10:42:50.004Z,69.95
2019-01-30T10:45:18.842Z,70.95
2019-01-30T10:47:47.572Z,70.25
2019-01-30T10:50:18.599Z,70.50
2019-01-30T10:52:48.015Z,70.60
2019-01-30T10:55:18.439Z,70.47
2019-01-30T10:57:50.147Z,70.75
2019-01-30T11:00:21.223Z,71.47
2019-01-30T11:02:49.847Z,70.72
2019-01-30T11:05:18.430Z,70.72
2019-01-30T11:07:47.093Z,71.26
2019-01-30T11:10:17.159Z,70.76
2019-01-30T11:12:45.881Z,70.60
2019-01-30T11:15:16.572Z,72.04
2019-01-30T11:17:45.364Z,70.20
2019-01-30T11:20:15.583Z,71.47
2019-01-30T11:22:44.292Z,71.71
2019-01-30T11:25:21.951Z,71.62
2019-01-30T11:27:50.542Z,71.91
2019-01-30T11:30:19.518Z,71.29
2019-01-30T11:32:48.148Z,72.18
2019-01-30T11:35:16.830Z,72.39
2019-01-30T11:37:45.415Z,71.54
2019-01-30T11:40:15.070Z,73.38
2019-01-30T11:42:43.722Z,71.79
2019-01-30T11:45:18.183Z,75.03
2019-01-30T11:47:46.765Z,70.19
2019-01-30T11:50:15.463Z,70.19
2019-01-30T11:52:44.148Z,72.27
2019-01-30T11:55:13.351Z,71.98
2019-01-30T11:57:41.952Z,73.27
2019-01-30T12:00:14.941Z,73.07
2019-01-30T12:02:47.948Z,71.53
2019-01-30T12:05:14.616Z,71.80
2019-01-30T12:07:43.328Z,71.35
2019-01-30T12:10:11.952Z,72.90
2019-01-30T12:12:40.676Z,73.33
2019-01-30T12:15:12.845Z,71.99
2019-01-30T12:17:41.453Z,71.43
2019-01-30T12:20:10.881Z,71.98
2019-01-30T12:22:39.482Z,72.05
2019-01-30T12:25:09.097Z,72.64
2019-01-30T12:27:37.950Z,73.01
2019-01-30T12:30:11.594Z,72.95
2019-01-30T12:32:40.228Z,71.94
2019-01-30T12:35:08.828Z,72.00
2019-01-30T12:37:37.464Z,72.72
2019-01-30T12:40:06.704Z,71.89
2019-01-30T12:42:35.576Z,70.75
2019-01-30T12:45:05.437Z,71.08
2019-01-30T12:47:34.073Z,70.64
2019-01-30T12:50:02.707Z,71.32
2019-01-30T12:52:31.547Z,71.33
2019-01-30T12:55:00.205Z,70.72
2019-01-30T12:57:29.072Z,70.41
2019-01-30T12:59:57.743Z,71.21
2019-01-30T13:02:26.344Z,70.90
2019-01-30T13:04:54.968Z,70.75
2019-01-30T13:07:23.567Z,71.13
2019-01-30T13:09:52.174Z,70.49
2019-01-30T13:12:20.801Z,71.45
2019-01-30T13:14:49.388Z,70.67
2019-01-30T13:17:17.998Z,70.68
2019-01-30T13:19:46.616Z,71.44
2019-01-30T13:22:15.238Z,71.01
2019-01-30T13:24:43.884Z,71.22
2019-01-30T13:27:12.517Z,71.23
2019-01-30T13:29:41.213Z,71.51
2019-01-30T13:32:09.825Z,71.33
2019-01-30T13:34:48.617Z,71.73
2019-01-30T13:37:08.875Z,72.33
2019-01-30T13:39:37.497Z,72.87
2019-01-30T13:42:06.085Z,72.89
2019-01-30T13:44:34.744Z,72.23
2019-01-30T13:47:03.336Z,72.70
2019-01-30T13:49:31.901Z,73.08
2019-01-30T13:52:00.530Z,72.94
2019-01-30T13:54:29.216Z,73.30
2019-01-30T13:56:57.823Z,73.92
2019-01-30T13:59:26.426Z,74.13
2019-01-30T14:01:54.985Z,73.59
2019-01-30T14:04:23.633Z,74.14
2019-01-30T14:06:52.228Z,73.08
2019-01-30T14:09:20.878Z,73.53
2019-01-30T14:11:49.532Z,73.31
2019-01-30T14:14:18.157Z,73.47
2019-01-30T14:16:46.825Z,73.71
2019-01-30T14:19:15.465Z,74.05
2019-01-30T14:21:44.127Z,73.84
2019-01-30T14:24:12.764Z,73.78
2019-01-30T14:26:41.421Z,73.93
2019-01-30T14:29:10.009Z,73.78
2019-01-30T14:31:38.585Z,74.48
2019-01-30T14:34:07.250Z,74.72
2019-01-30T14:36:35.861Z,74.52
2019-01-30T14:39:07.045Z,75.14
2019-01-30T14:41:35.942Z,76.05
2019-01-30T14:44:04.540Z,76.07
2019-01-30T14:46:33.185Z,76.00
2019-01-30T14:49:01.852Z,76.49
2019-01-30T14:51:30.709Z,76.74
2019-01-30T14:53:59.240Z,76.98
2019-01-30T14:56:27.853Z,77.04
2019-01-30T14:58:56.438Z,77.24
2019-01-30T15:01:25.066Z,77.20
2019-01-30T15:03:53.750Z,77.26
2019-01-30T15:06:22.356Z,77.21
2019-01-30T15:08:51.094Z,76.99
2019-01-30T15:11:19.675Z,77.29
2019-01-30T15:13:48.277Z,77.13
2019-01-30T15:16:16.980Z,76.95
2019-01-30T15:18:45.766Z,77.16
2019-01-30T15:21:14.535Z,77.03
2019-01-30T15:23:43.108Z,77.11
2019-01-30T15:26:11.752Z,76.61
2019-01-30T15:28:40.388Z,76.48
2019-01-30T15:31:08.972Z,75.58
2019-01-30T15:33:37.613Z,74.87
2019-01-30T15:36:06.283Z,75.09
2019-01-30T15:38:34.896Z,74.34
2019-01-30T15:41:03.440Z,75.18
2019-01-30T15:43:32.093Z,74.81
2019-01-30T15:46:02.852Z,75.02
2019-01-30T15:48:31.448Z,74.62
2019-01-30T15:51:00.099Z,74.60
2019-01-30T15:53:29.097Z,74.43
2019-01-30T15:55:57.789Z,74.28
2019-01-30T15:58:26.365Z,74.76
2019-01-30T16:00:58.976Z,74.96
2019-01-30T16:03:27.647Z,75.61
2019-01-30T16:05:56.272Z,76.47
2019-01-30T16:08:24.888Z,76.37
2019-01-30T16:10:53.636Z,76.43
2019-01-30T16:13:22.238Z,76.95
2019-01-30T16:15:56.699Z,77.22
2019-01-30T16:18:25.321Z,77.03
2019-01-30T16:20:53.950Z,77.66
2019-01-30T16:23:22.545Z,77.12
2019-01-30T16:25:51.234Z,77.14
2019-01-30T16:28:19.836Z,76.92
2019-01-30T16:30:48.496Z,76.44
2019-01-30T16:33:17.152Z,76.46
2019-01-30T16:35:55.651Z,75.83
2019-01-30T16:38:16.174Z,76.09
2019-01-30T16:40:44.802Z,76.16
2019-01-30T16:43:13.499Z,76.18
2019-01-30T16:45:42.119Z,76.22
2019-01-30T16:48:10.774Z,76.00
2019-01-30T16:50:39.388Z,76.32
2019-01-30T16:53:08.710Z,75.76
2019-01-30T16:55:38.079Z,75.80
2019-01-30T16:58:08.989Z,75.91
2019-01-30T17:00:37.754Z,75.74
2019-01-30T17:03:06.509Z,76.24
2019-01-30T17:05:35.221Z,75.93
2019-01-30T17:08:03.844Z,75.96
2019-01-30T17:10:32.469Z,75.71
2019-01-30T17:13:01.171Z,75.90
2019-01-30T17:15:33.034Z,75.79
2019-01-30T17:18:01.838Z,75.74
2019-01-30T17:20:32.761Z,75.36
2019-01-30T17:23:01.420Z,74.74
2019-01-30T17:25:30.036Z,74.74
2019-01-30T17:27:58.622Z,74.50
2019-01-30T17:30:32.834Z,74.19
2019-01-30T17:33:01.530Z,74.32
2019-01-30T17:35:30.301Z,74.05
2019-01-30T17:37:58.923Z,73.65
2019-01-30T17:40:27.551Z,73.51
2019-01-30T17:42:56.164Z,73.50
2019-01-30T17:45:25.015Z,73.17
2019-01-30T17:47:53.609Z,73.25
2019-01-30T17:50:23.543Z,72.47
2019-01-30T17:52:52.227Z,72.46
2019-01-30T17:55:20.846Z,72.98
2019-01-30T17:57:49.397Z,72.72
2019-01-30T18:00:33.115Z,73.67
2019-01-30T18:03:01.729Z,73.48
2019-01-30T18:05:30.341Z,73.82
2019-01-30T18:07:58.968Z,74.41
2019-01-30T18:10:27.615Z,74.96
2019-01-30T18:12:56.226Z,74.90
2019-01-30T18:15:24.886Z,75.89
2019-01-30T18:17:54.404Z,76.89
2019-01-30T18:20:23.416Z,77.12
2019-01-30T18:22:52.008Z,77.67
2019-01-30T18:25:20.665Z,77.62
2019-01-30T18:27:49.231Z,78.05
2019-01-30T18:30:18.304Z,78.49
2019-01-30T18:32:46.884Z,78.63
2019-01-30T18:35:15.571Z,78.53
2019-01-30T18:37:44.229Z,78.16
2019-01-30T18:40:15.405Z,77.90
2019-01-30T18:42:44.028Z,78.30
2019-01-30T18:45:15.422Z,78.28
2019-01-30T18:47:44.048Z,78.79
2019-01-30T18:50:15.559Z,78.65
2019-01-30T18:52:44.287Z,78.54
2019-01-30T18:55:12.870Z,78.36
2019-01-30T18:57:41.483Z,78.58
2019-01-30T19:00:14.740Z,78.28
2019-01-30T19:02:43.380Z,78.26
2019-01-30T19:05:11.992Z,77.05
2019-01-30T19:07:40.591Z,76.96
2019-01-30T19:10:11.408Z,75.77
2019-01-30T19:12:40.065Z,75.34
2019-01-30T19:15:12.419Z,75.55
2019-01-30T19:17:41.503Z,75.38
2019-01-30T19:20:12.946Z,75.02
2019-01-30T19:22:41.567Z,74.37
2019-01-30T19:25:10.154Z,74.45
2019-01-30T19:27:38.866Z,74.24
2019-01-30T19:30:11.725Z,74.20
2019-01-30T19:32:40.354Z,73.86
2019-01-30T19:35:09.712Z,73.83
2019-01-30T19:37:38.334Z,72.92
2019-01-30T19:40:06.920Z,72.22
2019-01-30T19:42:35.567Z,72.07
2019-01-30T19:45:05.199Z,71.89
2019-01-30T19:47:33.856Z,71.02
2019-01-30T19:50:02.421Z,70.95
2019-01-30T19:52:31.158Z,71.13
2019-01-30T19:54:59.731Z,70.91
2019-01-30T19:57:28.374Z,71.45
2019-01-30T19:59:57.063Z,71.46
2019-01-30T20:02:25.648Z,71.93
2019-01-30T20:04:54.394Z,71.53
2019-01-30T20:07:23.086Z,71.30
2019-01-30T20:09:51.725Z,71.59
2019-01-30T20:12:20.420Z,71.56
2019-01-30T20:14:49.024Z,71.65
2019-01-30T20:17:17.668Z,71.53
2019-01-30T20:19:46.294Z,71.52
2019-01-30T20:22:14.913Z,71.44
2019-01-30T20:24:43.552Z,70.55
2019-01-30T20:27:12.218Z,70.09
2019-01-30T20:29:40.821Z,69.57
2019-01-30T20:32:09.519Z,69.88
2019-01-30T20:34:38.110Z,69.35
2019-01-30T20:37:06.705Z,69.53
2019-01-30T20:39:35.342Z,69.79
2019-01-30T20:42:04.066Z,68.61
2019-01-30T20:44:32.648Z,69.00
2019-01-30T20:47:01.242Z,69.02
2019-01-30T20:49:29.802Z,68.09
2019-01-30T20:51:58.426Z,68.27
2019-01-30T20:54:27.025Z,68.12
2019-01-30T20:56:55.608Z,67.86
2019-01-30T20:59:24.167Z,67.96
2019-01-30T21:01:52.734Z,68.00
2019-01-30T21:04:21.411Z,67.90
2019-01-30T21:06:49.985Z,68.39
2019-01-30T21:09:18.584Z,67.96
2019-01-30T21:11:47.214Z,68.01
2019-01-30T21:14:15.834Z,67.97
2019-01-30T21:16:44.451Z,67.97
2019-01-30T21:19:13.204Z,67.46
2019-01-30T21:21:41.884Z,67.99
2019-01-30T21:24:10.515Z,67.98
2019-01-30T21:26:39.082Z,67.97
2019-01-30T21:29:07.783Z,68.28
2019-01-30T21:31:36.430Z,67.95
2019-01-30T21:34:04.968Z,68.60
2019-01-30T21:36:33.628Z,69.30
2019-01-30T21:39:02.224Z,68.40
2019-01-30T21:41:30.820Z,68.75
2019-01-30T21:43:59.418Z,67.74
2019-01-30T21:46:27.977Z,68.01
2019-01-30T21:48:56.633Z,68.31
2019-01-30T21:51:25.194Z,69.02
2019-01-30T21:53:53.782Z,68.64
2019-01-30T21:56:22.392Z,68.23
2019-01-30T21:58:50.995Z,68.66
2019-01-30T22:01:20.769Z,68.91
2019-01-30T22:03:49.418Z,68.60
2019-01-30T22:06:17.999Z,68.60
2019-01-30T22:08:46.648Z,68.88
2019-01-30T22:11:15.348Z,68.88
2019-01-30T22:13:44.088Z,69.01
2019-01-30T22:16:12.712Z,68.59
2019-01-30T22:18:41.375Z,68.94
2019-01-30T22:21:10.020Z,68.97
2019-01-30T22:23:38.602Z,69.84
2019-01-30T22:26:07.154Z,69.15
2019-01-30T22:28:35.753Z,69.35
2019-01-30T22:31:04.405Z,69.38
2019-01-30T22:33:33.018Z,69.38
2019-01-30T22:36:01.625Z,69.44
2019-01-30T22:38:30.255Z,69.67
2019-01-30T22:40:58.830Z,70.38
2019-01-30T22:43:27.461Z,70.23
2019-01-30T22:45:56.197Z,70.71
2019-01-30T22:48:24.811Z,71.36
2019-01-30T22:50:53.486Z,72.12
2019-01-30T22:53:22.107Z,72.40
2019-01-30T22:55:50.706Z,73.28
2019-01-30T22:58:19.305Z,73.46
2019-01-30T23:01:06.066Z,74.14
2019-01-30T23:03:51.905Z,73.81
2019-01-30T23:06:50.470Z,73.15
2019-01-30T23:09:55.527Z,73.75
2019-01-30T23:12:49.932Z,73.19
2019-01-30T23:15:31.427Z,73.91
2019-01-30T23:18:34.405Z,73.26
2019-01-30T23:21:11.713Z,74.09
2019-01-30T23:24:02.589Z,75.59
2019-01-30T23:26:39.317Z,74.17
2019-01-30T23:29:55.084Z,74.19
2019-01-30T23:33:10.843Z,73.74
2019-01-30T23:36:32.852Z,74.16
2019-01-30T23:39:40.325Z,73.97
2019-01-30T23:42:46.084Z,73.82
2019-01-30T23:46:08.131Z,73.58
2019-01-30T23:49:07.495Z,74.78
2019-01-30T23:52:09.276Z,74.75
2019-01-30T23:55:15.606Z,75.23
2019-01-30T23:57:56.221Z,75.64
